sensor_id;sensor_type;location;lat;lon;timestamp;P1;durP1;ratioP1;P2;durP2;ratioP2
36243;SDS011;22284;49.956;19.816;2022-08-21T00:01:13;24.70;;;13.98;;
36243;SDS011;22284;49.956;19.816;2022-08-21T00:04:18;19.92;;;12.25;;
36243;SDS011;22284;49.956;19.816;2022-08-21T00:07:20;19.47;;;11.73;;
36243;SDS011;22284;49.956;19.816;2022-08-21T00:10:22;17.75;;;11.83;;
36243;SDS011;22284;49.956;19.816;2022-08-21T00:13:23;19.93;;;12.33;;
36243;SDS011;22284;49.956;19.816;2022-08-21T00:16:25;20.45;;;11.63;;
36243;SDS011;22284;49.956;19.816;2022-08-21T00:19:26;19.30;;;11.63;;
36243;SDS011;22284;49.956;19.816;2022-08-21T00:22:28;17.80;;;11.57;;
36243;SDS011;22284;49.956;19.816;2022-08-21T00:25:29;20.15;;;11.83;;
36243;SDS011;22284;49.956;19.816;2022-08-21T00:28:32;19.62;;;11.12;;
36243;SDS011;22284;49.956;19.816;2022-08-21T00:31:33;17.15;;;11.60;;
36243;SDS011;22284;49.956;19.816;2022-08-21T00:34:34;18.67;;;11.53;;
36243;SDS011;22284;49.956;19.816;2022-08-21T00:37:35;20.25;;;11.57;;
36243;SDS011;22284;49.956;19.816;2022-08-21T00:40:38;17.85;;;11.78;;
36243;SDS011;22284;49.956;19.816;2022-08-21T00:43:49;17.67;;;11.08;;
36243;SDS011;22284;49.956;19.816;2022-08-21T00:46:51;19.65;;;11.48;;
36243;SDS011;22284;49.956;19.816;2022-08-21T00:49:53;18.95;;;11.10;;
36243;SDS011;22284;49.956;19.816;2022-08-21T00:52:54;17.70;;;10.85;;
36243;SDS011;22284;49.956;19.816;2022-08-21T00:55:56;16.73;;;10.43;;
36243;SDS011;22284;49.956;19.816;2022-08-21T00:58:58;18.37;;;11.05;;
36243;SDS011;22284;49.956;19.816;2022-08-21T01:02:04;16.80;;;11.22;;
36243;SDS011;22284;49.956;19.816;2022-08-21T01:05:08;16.73;;;10.53;;
36243;SDS011;22284;49.956;19.816;2022-08-21T01:08:11;18.45;;;10.90;;
36243;SDS011;22284;49.956;19.816;2022-08-21T01:11:18;19.00;;;10.38;;
36243;SDS011;22284;49.956;19.816;2022-08-21T01:14:17;21.40;;;11.48;;
36243;SDS011;22284;49.956;19.816;2022-08-21T01:20:21;17.37;;;11.20;;
36243;SDS011;22284;49.956;19.816;2022-08-21T01:23:22;15.43;;;10.45;;
36243;SDS011;22284;49.956;19.816;2022-08-21T01:26:25;18.53;;;11.30;;
36243;SDS011;22284;49.956;19.816;2022-08-21T01:29:46;17.92;;;10.75;;
36243;SDS011;22284;49.956;19.816;2022-08-21T01:32:58;17.65;;;10.55;;
36243;SDS011;22284;49.956;19.816;2022-08-21T01:35:59;16.30;;;10.10;;
36243;SDS011;22284;49.956;19.816;2022-08-21T01:39:01;21.73;;;12.55;;
36243;SDS011;22284;49.956;19.816;2022-08-21T01:42:04;18.67;;;11.60;;
36243;SDS011;22284;49.956;19.816;2022-08-21T01:45:07;20.15;;;12.70;;
36243;SDS011;22284;49.956;19.816;2022-08-21T01:48:09;20.10;;;11.48;;
36243;SDS011;22284;49.956;19.816;2022-08-21T01:51:10;18.75;;;12.00;;
36243;SDS011;22284;49.956;19.816;2022-08-21T01:54:12;21.30;;;10.68;;
36243;SDS011;22284;49.956;19.816;2022-08-21T01:57:13;18.77;;;11.85;;
36243;SDS011;22284;49.956;19.816;2022-08-21T02:00:16;21.12;;;12.47;;
36243;SDS011;22284;49.956;19.816;2022-08-21T02:03:19;22.52;;;13.70;;
36243;SDS011;22284;49.956;19.816;2022-08-21T02:06:20;21.40;;;13.48;;
36243;SDS011;22284;49.956;19.816;2022-08-21T02:09:21;22.93;;;13.32;;
36243;SDS011;22284;49.956;19.816;2022-08-21T02:12:22;19.98;;;13.30;;
36243;SDS011;22284;49.956;19.816;2022-08-21T02:15:23;19.37;;;12.90;;
36243;SDS011;22284;49.956;19.816;2022-08-21T02:18:24;21.80;;;12.35;;
36243;SDS011;22284;49.956;19.816;2022-08-21T02:21:25;19.20;;;11.68;;
36243;SDS011;22284;49.956;19.816;2022-08-21T02:24:26;21.15;;;12.33;;
36243;SDS011;22284;49.956;19.816;2022-08-21T02:27:28;21.73;;;12.25;;
36243;SDS011;22284;49.956;19.816;2022-08-21T02:30:31;20.12;;;12.50;;
36243;SDS011;22284;49.956;19.816;2022-08-21T02:33:38;19.02;;;12.35;;
36243;SDS011;22284;49.956;19.816;2022-08-21T02:36:39;19.48;;;11.45;;
36243;SDS011;22284;49.956;19.816;2022-08-21T02:39:40;19.70;;;11.03;;
36243;SDS011;22284;49.956;19.816;2022-08-21T02:42:41;18.15;;;10.85;;
36243;SDS011;22284;49.956;19.816;2022-08-21T02:48:46;15.58;;;9.30;;
36243;SDS011;22284;49.956;19.816;2022-08-21T02:51:47;18.40;;;11.10;;
36243;SDS011;22284;49.956;19.816;2022-08-21T02:54:48;17.85;;;10.40;;
36243;SDS011;22284;49.956;19.816;2022-08-21T02:57:49;16.35;;;9.88;;
36243;SDS011;22284;49.956;19.816;2022-08-21T03:00:50;15.20;;;10.05;;
36243;SDS011;22284;49.956;19.816;2022-08-21T03:03:51;16.65;;;10.28;;
36243;SDS011;22284;49.956;19.816;2022-08-21T03:06:53;18.60;;;10.70;;
36243;SDS011;22284;49.956;19.816;2022-08-21T03:09:55;18.30;;;10.28;;
36243;SDS011;22284;49.956;19.816;2022-08-21T03:12:56;13.48;;;9.10;;
36243;SDS011;22284;49.956;19.816;2022-08-21T03:15:58;15.63;;;9.83;;
36243;SDS011;22284;49.956;19.816;2022-08-21T03:19:00;17.57;;;9.60;;
36243;SDS011;22284;49.956;19.816;2022-08-21T03:22:01;16.93;;;9.65;;
36243;SDS011;22284;49.956;19.816;2022-08-21T03:25:03;16.20;;;9.53;;
36243;SDS011;22284;49.956;19.816;2022-08-21T03:28:06;15.68;;;9.20;;
36243;SDS011;22284;49.956;19.816;2022-08-21T03:31:13;15.25;;;9.80;;
36243;SDS011;22284;49.956;19.816;2022-08-21T03:34:14;17.85;;;10.40;;
36243;SDS011;22284;49.956;19.816;2022-08-21T03:37:15;16.07;;;9.73;;
36243;SDS011;22284;49.956;19.816;2022-08-21T03:40:17;16.83;;;10.20;;
36243;SDS011;22284;49.956;19.816;2022-08-21T03:43:21;14.25;;;9.43;;
36243;SDS011;22284;49.956;19.816;2022-08-21T03:46:22;16.50;;;10.53;;
36243;SDS011;22284;49.956;19.816;2022-08-21T03:49:23;17.60;;;10.00;;
36243;SDS011;22284;49.956;19.816;2022-08-21T03:52:25;16.60;;;10.25;;
36243;SDS011;22284;49.956;19.816;2022-08-21T03:55:26;21.12;;;10.30;;
36243;SDS011;22284;49.956;19.816;2022-08-21T03:58:28;23.20;;;10.82;;
36243;SDS011;22284;49.956;19.816;2022-08-21T04:01:29;18.50;;;9.90;;
36243;SDS011;22284;49.956;19.816;2022-08-21T04:04:31;15.78;;;10.08;;
36243;SDS011;22284;49.956;19.816;2022-08-21T04:07:33;16.40;;;10.25;;
36243;SDS011;22284;49.956;19.816;2022-08-21T04:10:35;16.75;;;10.60;;
36243;SDS011;22284;49.956;19.816;2022-08-21T04:13:39;16.00;;;9.73;;
36243;SDS011;22284;49.956;19.816;2022-08-21T04:16:41;18.55;;;10.10;;
36243;SDS011;22284;49.956;19.816;2022-08-21T04:19:44;14.73;;;9.63;;
36243;SDS011;22284;49.956;19.816;2022-08-21T04:22:46;17.75;;;9.98;;
36243;SDS011;22284;49.956;19.816;2022-08-21T04:25:47;17.52;;;9.83;;
36243;SDS011;22284;49.956;19.816;2022-08-21T04:28:48;15.43;;;9.45;;
36243;SDS011;22284;49.956;19.816;2022-08-21T04:31:49;17.90;;;10.08;;
36243;SDS011;22284;49.956;19.816;2022-08-21T04:35:02;17.87;;;10.30;;
36243;SDS011;22284;49.956;19.816;2022-08-21T04:38:08;17.55;;;10.25;;
36243;SDS011;22284;49.956;19.816;2022-08-21T04:41:09;17.40;;;10.38;;
36243;SDS011;22284;49.956;19.816;2022-08-21T04:44:11;16.32;;;10.13;;
36243;SDS011;22284;49.956;19.816;2022-08-21T04:47:12;20.60;;;11.05;;
36243;SDS011;22284;49.956;19.816;2022-08-21T04:50:13;16.80;;;10.13;;
36243;SDS011;22284;49.956;19.816;2022-08-21T04:53:16;16.32;;;9.83;;
36243;SDS011;22284;49.956;19.816;2022-08-21T04:56:55;20.52;;;10.78;;
36243;SDS011;22284;49.956;19.816;2022-08-21T04:59:59;19.20;;;11.50;;
36243;SDS011;22284;49.956;19.816;2022-08-21T05:03:01;17.25;;;11.60;;
36243;SDS011;22284;49.956;19.816;2022-08-21T05:06:06;18.98;;;10.98;;
36243;SDS011;22284;49.956;19.816;2022-08-21T05:09:12;18.98;;;12.05;;
36243;SDS011;22284;49.956;19.816;2022-08-21T05:12:15;21.30;;;13.28;;
36243;SDS011;22284;49.956;19.816;2022-08-21T05:15:17;21.60;;;12.63;;
36243;SDS011;22284;49.956;19.816;2022-08-21T05:18:18;19.87;;;12.03;;
36243;SDS011;22284;49.956;19.816;2022-08-21T05:21:19;22.45;;;13.55;;
36243;SDS011;22284;49.956;19.816;2022-08-21T05:24:21;21.73;;;13.40;;
36243;SDS011;22284;49.956;19.816;2022-08-21T05:27:22;21.82;;;13.53;;
36243;SDS011;22284;49.956;19.816;2022-08-21T05:30:23;22.50;;;12.98;;
36243;SDS011;22284;49.956;19.816;2022-08-21T05:33:24;22.80;;;14.60;;
36243;SDS011;22284;49.956;19.816;2022-08-21T05:36:26;26.60;;;16.73;;
36243;SDS011;22284;49.956;19.816;2022-08-21T05:39:27;23.07;;;15.65;;
36243;SDS011;22284;49.956;19.816;2022-08-21T05:42:28;28.15;;;17.25;;
36243;SDS011;22284;49.956;19.816;2022-08-21T05:45:31;31.20;;;17.07;;
36243;SDS011;22284;49.956;19.816;2022-08-21T05:48:33;31.93;;;18.50;;
36243;SDS011;22284;49.956;19.816;2022-08-21T05:51:36;30.72;;;18.27;;
36243;SDS011;22284;49.956;19.816;2022-08-21T05:54:37;30.02;;;17.98;;
36243;SDS011;22284;49.956;19.816;2022-08-21T05:57:38;26.57;;;17.87;;
36243;SDS011;22284;49.956;19.816;2022-08-21T06:00:41;29.72;;;18.92;;
36243;SDS011;22284;49.956;19.816;2022-08-21T06:03:44;34.08;;;19.17;;
36243;SDS011;22284;49.956;19.816;2022-08-21T06:06:46;33.53;;;19.67;;
36243;SDS011;22284;49.956;19.816;2022-08-21T06:09:47;33.58;;;20.17;;
36243;SDS011;22284;49.956;19.816;2022-08-21T06:12:52;36.50;;;20.92;;
36243;SDS011;22284;49.956;19.816;2022-08-21T06:16:05;38.17;;;21.85;;
36243;SDS011;22284;49.956;19.816;2022-08-21T06:19:13;33.28;;;21.30;;
36243;SDS011;22284;49.956;19.816;2022-08-21T06:22:14;34.25;;;21.10;;
36243;SDS011;22284;49.956;19.816;2022-08-21T06:25:15;35.13;;;22.13;;
36243;SDS011;22284;49.956;19.816;2022-08-21T06:28:16;36.85;;;21.00;;
36243;SDS011;22284;49.956;19.816;2022-08-21T06:31:19;38.40;;;21.55;;
36243;SDS011;22284;49.956;19.816;2022-08-21T06:34:23;37.03;;;21.15;;
36243;SDS011;22284;49.956;19.816;2022-08-21T06:37:24;33.78;;;20.97;;
36243;SDS011;22284;49.956;19.816;2022-08-21T06:40:28;34.83;;;20.82;;
36243;SDS011;22284;49.956;19.816;2022-08-21T06:43:30;35.75;;;21.05;;
36243;SDS011;22284;49.956;19.816;2022-08-21T06:46:31;38.73;;;20.62;;
36243;SDS011;22284;49.956;19.816;2022-08-21T06:49:32;33.00;;;21.45;;
36243;SDS011;22284;49.956;19.816;2022-08-21T06:52:34;36.83;;;21.65;;
36243;SDS011;22284;49.956;19.816;2022-08-21T06:55:37;34.83;;;21.37;;
36243;SDS011;22284;49.956;19.816;2022-08-21T06:58:40;38.20;;;21.57;;
36243;SDS011;22284;49.956;19.816;2022-08-21T07:01:41;37.55;;;21.52;;
36243;SDS011;22284;49.956;19.816;2022-08-21T07:04:42;37.50;;;21.27;;
36243;SDS011;22284;49.956;19.816;2022-08-21T07:07:44;42.83;;;23.45;;
36243;SDS011;22284;49.956;19.816;2022-08-21T07:13:50;39.73;;;23.52;;
36243;SDS011;22284;49.956;19.816;2022-08-21T07:16:53;41.05;;;23.38;;
36243;SDS011;22284;49.956;19.816;2022-08-21T07:19:54;42.73;;;23.98;;
36243;SDS011;22284;49.956;19.816;2022-08-21T07:22:58;40.10;;;22.42;;
36243;SDS011;22284;49.956;19.816;2022-08-21T07:26:02;44.63;;;23.83;;
36243;SDS011;22284;49.956;19.816;2022-08-21T07:29:04;40.57;;;24.00;;
36243;SDS011;22284;49.956;19.816;2022-08-21T07:32:05;39.45;;;22.52;;
36243;SDS011;22284;49.956;19.816;2022-08-21T07:35:07;43.90;;;24.00;;
36243;SDS011;22284;49.956;19.816;2022-08-21T07:38:08;39.78;;;23.32;;
36243;SDS011;22284;49.956;19.816;2022-08-21T07:41:17;39.27;;;23.50;;
36243;SDS011;22284;49.956;19.816;2022-08-21T07:44:24;40.40;;;24.00;;
36243;SDS011;22284;49.956;19.816;2022-08-21T07:47:25;39.27;;;22.17;;
36243;SDS011;22284;49.956;19.816;2022-08-21T07:50:26;38.33;;;21.85;;
36243;SDS011;22284;49.956;19.816;2022-08-21T07:53:27;38.80;;;22.95;;
36243;SDS011;22284;49.956;19.816;2022-08-21T07:56:29;38.28;;;23.05;;
36243;SDS011;22284;49.956;19.816;2022-08-21T07:59:32;39.20;;;22.42;;
36243;SDS011;22284;49.956;19.816;2022-08-21T08:02:33;35.78;;;21.23;;
36243;SDS011;22284;49.956;19.816;2022-08-21T08:05:34;40.20;;;22.98;;
36243;SDS011;22284;49.956;19.816;2022-08-21T08:08:42;39.80;;;23.10;;
36243;SDS011;22284;49.956;19.816;2022-08-21T08:11:41;38.73;;;22.25;;
36243;SDS011;22284;49.956;19.816;2022-08-21T08:14:44;38.20;;;23.15;;
36243;SDS011;22284;49.956;19.816;2022-08-21T08:17:45;39.53;;;23.10;;
36243;SDS011;22284;49.956;19.816;2022-08-21T08:20:46;39.25;;;22.05;;
36243;SDS011;22284;49.956;19.816;2022-08-21T08:23:47;38.08;;;22.82;;
36243;SDS011;22284;49.956;19.816;2022-08-21T08:26:49;41.53;;;22.90;;
36243;SDS011;22284;49.956;19.816;2022-08-21T08:29:50;40.80;;;22.80;;
36243;SDS011;22284;49.956;19.816;2022-08-21T08:32:51;37.85;;;22.05;;
36243;SDS011;22284;49.956;19.816;2022-08-21T08:35:53;39.05;;;21.75;;
36243;SDS011;22284;49.956;19.816;2022-08-21T08:38:54;39.80;;;22.95;;
36243;SDS011;22284;49.956;19.816;2022-08-21T08:41:58;41.92;;;23.83;;
36243;SDS011;22284;49.956;19.816;2022-08-21T08:45:16;41.48;;;24.75;;
36243;SDS011;22284;49.956;19.816;2022-08-21T08:55:06;39.83;;;23.18;;
36243;SDS011;22284;49.956;19.816;2022-08-21T08:58:19;38.10;;;23.10;;
36243;SDS011;22284;49.956;19.816;2022-08-21T09:01:26;38.73;;;23.15;;
36243;SDS011;22284;49.956;19.816;2022-08-21T09:04:27;36.93;;;23.20;;
36243;SDS011;22284;49.956;19.816;2022-08-21T09:10:57;38.45;;;23.22;;
36243;SDS011;22284;49.956;19.816;2022-08-21T09:14:13;41.05;;;23.75;;
36243;SDS011;22284;49.956;19.816;2022-08-21T09:17:24;38.28;;;23.83;;
36243;SDS011;22284;49.956;19.816;2022-08-21T09:27:34;37.25;;;23.00;;
36243;SDS011;22284;49.956;19.816;2022-08-21T09:30:36;36.03;;;22.37;;
36243;SDS011;22284;49.956;19.816;2022-08-21T09:33:41;34.65;;;21.70;;
36243;SDS011;22284;49.956;19.816;2022-08-21T09:36:43;34.38;;;22.93;;
36243;SDS011;22284;49.956;19.816;2022-08-21T09:39:50;36.42;;;21.70;;
36243;SDS011;22284;49.956;19.816;2022-08-21T09:42:56;31.90;;;21.05;;
36243;SDS011;22284;49.956;19.816;2022-08-21T09:46:02;34.88;;;22.30;;
36243;SDS011;22284;49.956;19.816;2022-08-21T09:49:10;38.42;;;24.35;;
36243;SDS011;22284;49.956;19.816;2022-08-21T09:52:15;34.43;;;22.73;;
36243;SDS011;22284;49.956;19.816;2022-08-21T09:55:19;35.28;;;23.80;;
36243;SDS011;22284;49.956;19.816;2022-08-21T09:58:55;39.10;;;24.12;;
36243;SDS011;22284;49.956;19.816;2022-08-21T10:01:56;39.13;;;26.12;;
36243;SDS011;22284;49.956;19.816;2022-08-21T10:05:19;37.98;;;25.52;;
36243;SDS011;22284;49.956;19.816;2022-08-21T10:08:25;36.08;;;24.70;;
36243;SDS011;22284;49.956;19.816;2022-08-21T10:11:29;40.98;;;26.25;;
36243;SDS011;22284;49.956;19.816;2022-08-21T10:14:50;38.42;;;25.88;;
36243;SDS011;22284;49.956;19.816;2022-08-21T10:21:56;28.23;;;15.68;;
36243;SDS011;22284;49.956;19.816;2022-08-21T10:25:16;13.58;;;8.05;;
36243;SDS011;22284;49.956;19.816;2022-08-21T10:28:59;8.50;;;5.33;;
36243;SDS011;22284;49.956;19.816;2022-08-21T10:35:33;10.30;;;4.30;;
36243;SDS011;22284;49.956;19.816;2022-08-21T10:38:41;7.25;;;4.15;;
36243;SDS011;22284;49.956;19.816;2022-08-21T10:45:25;3.77;;;2.90;;
36243;SDS011;22284;49.956;19.816;2022-08-21T10:48:45;3.60;;;2.65;;
36243;SDS011;22284;49.956;19.816;2022-08-21T10:51:59;3.12;;;2.70;;
36243;SDS011;22284;49.956;19.816;2022-08-21T10:55:10;3.30;;;2.70;;
36243;SDS011;22284;49.956;19.816;2022-08-21T11:05:11;5.58;;;2.80;;
36243;SDS011;22284;49.956;19.816;2022-08-21T11:08:33;4.25;;;2.75;;
36243;SDS011;22284;49.956;19.816;2022-08-21T11:11:44;6.50;;;3.20;;
36243;SDS011;22284;49.956;19.816;2022-08-21T11:18:31;7.47;;;2.62;;
36243;SDS011;22284;49.956;19.816;2022-08-21T11:21:43;3.65;;;2.45;;
36243;SDS011;22284;49.956;19.816;2022-08-21T11:28:08;2.75;;;2.33;;
36243;SDS011;22284;49.956;19.816;2022-08-21T11:38:35;2.45;;;2.25;;
36243;SDS011;22284;49.956;19.816;2022-08-21T11:45:31;3.17;;;2.67;;
36243;SDS011;22284;49.956;19.816;2022-08-21T11:48:54;7.03;;;2.60;;
36243;SDS011;22284;49.956;19.816;2022-08-21T11:52:20;4.67;;;2.62;;
36243;SDS011;22284;49.956;19.816;2022-08-21T11:58:48;4.45;;;3.10;;
36243;SDS011;22284;49.956;19.816;2022-08-21T12:01:52;5.45;;;3.00;;
36243;SDS011;22284;49.956;19.816;2022-08-21T12:04:59;6.37;;;3.08;;
36243;SDS011;22284;49.956;19.816;2022-08-21T12:08:04;8.65;;;3.10;;
36243;SDS011;22284;49.956;19.816;2022-08-21T12:14:22;7.37;;;3.05;;
36243;SDS011;22284;49.956;19.816;2022-08-21T12:17:26;5.83;;;2.92;;
36243;SDS011;22284;49.956;19.816;2022-08-21T12:23:48;5.50;;;3.08;;
36243;SDS011;22284;49.956;19.816;2022-08-21T12:27:14;5.30;;;3.15;;
36243;SDS011;22284;49.956;19.816;2022-08-21T12:30:35;5.12;;;3.10;;
36243;SDS011;22284;49.956;19.816;2022-08-21T12:33:39;3.72;;;2.95;;
36243;SDS011;22284;49.956;19.816;2022-08-21T12:37:04;5.42;;;3.27;;
36243;SDS011;22284;49.956;19.816;2022-08-21T12:39:57;7.45;;;3.10;;
36243;SDS011;22284;49.956;19.816;2022-08-21T12:43:00;4.15;;;2.98;;
36243;SDS011;22284;49.956;19.816;2022-08-21T12:46:04;5.85;;;2.92;;
36243;SDS011;22284;49.956;19.816;2022-08-21T12:49:12;4.80;;;3.10;;
36243;SDS011;22284;49.956;19.816;2022-08-21T12:52:35;5.28;;;3.20;;
36243;SDS011;22284;49.956;19.816;2022-08-21T12:55:43;5.42;;;3.42;;
36243;SDS011;22284;49.956;19.816;2022-08-21T12:58:45;4.72;;;2.83;;
36243;SDS011;22284;49.956;19.816;2022-08-21T13:01:50;5.35;;;3.33;;
36243;SDS011;22284;49.956;19.816;2022-08-21T13:04:54;4.12;;;2.75;;
36243;SDS011;22284;49.956;19.816;2022-08-21T13:07:57;3.92;;;2.60;;
36243;SDS011;22284;49.956;19.816;2022-08-21T13:11:01;4.17;;;3.30;;
36243;SDS011;22284;49.956;19.816;2022-08-21T13:14:05;4.28;;;3.40;;
36243;SDS011;22284;49.956;19.816;2022-08-21T13:17:09;4.62;;;3.35;;
36243;SDS011;22284;49.956;19.816;2022-08-21T13:20:22;5.85;;;3.50;;
36243;SDS011;22284;49.956;19.816;2022-08-21T13:23:28;5.72;;;3.62;;
36243;SDS011;22284;49.956;19.816;2022-08-21T13:26:30;6.22;;;4.10;;
36243;SDS011;22284;49.956;19.816;2022-08-21T13:29:32;4.78;;;3.70;;
36243;SDS011;22284;49.956;19.816;2022-08-21T13:32:42;5.15;;;3.60;;
36243;SDS011;22284;49.956;19.816;2022-08-21T13:39:05;3.98;;;3.50;;
36243;SDS011;22284;49.956;19.816;2022-08-21T13:42:10;4.70;;;3.52;;
36243;SDS011;22284;49.956;19.816;2022-08-21T13:45:14;3.80;;;3.47;;
36243;SDS011;22284;49.956;19.816;2022-08-21T13:48:20;4.03;;;3.62;;
36243;SDS011;22284;49.956;19.816;2022-08-21T13:51:25;5.30;;;3.75;;
36243;SDS011;22284;49.956;19.816;2022-08-21T13:57:40;4.67;;;3.87;;
36243;SDS011;22284;49.956;19.816;2022-08-21T14:00:46;7.45;;;3.67;;
36243;SDS011;22284;49.956;19.816;2022-08-21T14:03:50;3.77;;;3.40;;
36243;SDS011;22284;49.956;19.816;2022-08-21T14:06:57;5.15;;;3.90;;
36243;SDS011;22284;49.956;19.816;2022-08-21T14:13:27;3.72;;;3.42;;
36243;SDS011;22284;49.956;19.816;2022-08-21T14:16:44;3.45;;;3.05;;
36243;SDS011;22284;49.956;19.816;2022-08-21T14:19:49;3.35;;;3.02;;
36243;SDS011;22284;49.956;19.816;2022-08-21T14:22:50;3.75;;;3.25;;
36243;SDS011;22284;49.956;19.816;2022-08-21T14:25:51;4.60;;;3.00;;
36243;SDS011;22284;49.956;19.816;2022-08-21T14:28:57;3.00;;;2.70;;
36243;SDS011;22284;49.956;19.816;2022-08-21T14:31:59;2.98;;;2.77;;
36243;SDS011;22284;49.956;19.816;2022-08-21T14:35:18;4.28;;;2.70;;
36243;SDS011;22284;49.956;19.816;2022-08-21T14:38:22;4.33;;;2.80;;
36243;SDS011;22284;49.956;19.816;2022-08-21T14:41:25;3.70;;;3.10;;
36243;SDS011;22284;49.956;19.816;2022-08-21T14:44:29;3.22;;;2.92;;
36243;SDS011;22284;49.956;19.816;2022-08-21T14:47:32;4.30;;;3.40;;
36243;SDS011;22284;49.956;19.816;2022-08-21T14:50:33;4.12;;;3.40;;
36243;SDS011;22284;49.956;19.816;2022-08-21T14:53:34;4.97;;;3.58;;
36243;SDS011;22284;49.956;19.816;2022-08-21T14:56:35;3.42;;;3.15;;
36243;SDS011;22284;49.956;19.816;2022-08-21T14:59:37;3.47;;;3.17;;
36243;SDS011;22284;49.956;19.816;2022-08-21T15:02:39;4.03;;;3.20;;
36243;SDS011;22284;49.956;19.816;2022-08-21T15:05:40;4.90;;;3.35;;
36243;SDS011;22284;49.956;19.816;2022-08-21T15:08:41;5.65;;;3.42;;
36243;SDS011;22284;49.956;19.816;2022-08-21T15:11:43;3.62;;;3.30;;
36243;SDS011;22284;49.956;19.816;2022-08-21T15:14:45;5.85;;;3.47;;
36243;SDS011;22284;49.956;19.816;2022-08-21T15:17:46;4.35;;;3.95;;
36243;SDS011;22284;49.956;19.816;2022-08-21T15:20:47;6.12;;;4.62;;
36243;SDS011;22284;49.956;19.816;2022-08-21T15:23:49;6.40;;;4.70;;
36243;SDS011;22284;49.956;19.816;2022-08-21T15:26:50;5.75;;;4.30;;
36243;SDS011;22284;49.956;19.816;2022-08-21T15:29:53;6.80;;;4.67;;
36243;SDS011;22284;49.956;19.816;2022-08-21T15:32:54;7.17;;;4.90;;
36243;SDS011;22284;49.956;19.816;2022-08-21T15:35:55;6.55;;;4.53;;
36243;SDS011;22284;49.956;19.816;2022-08-21T15:38:57;6.90;;;4.50;;
36243;SDS011;22284;49.956;19.816;2022-08-21T15:41:58;7.28;;;4.55;;
36243;SDS011;22284;49.956;19.816;2022-08-21T15:44:59;7.90;;;4.65;;
36243;SDS011;22284;49.956;19.816;2022-08-21T15:48:01;7.15;;;4.75;;
36243;SDS011;22284;49.956;19.816;2022-08-21T15:51:05;6.30;;;4.37;;
36243;SDS011;22284;49.956;19.816;2022-08-21T15:54:06;6.83;;;4.70;;
36243;SDS011;22284;49.956;19.816;2022-08-21T15:57:08;6.58;;;4.55;;
36243;SDS011;22284;49.956;19.816;2022-08-21T16:03:22;10.48;;;5.05;;
36243;SDS011;22284;49.956;19.816;2022-08-21T16:06:24;7.77;;;5.17;;
36243;SDS011;22284;49.956;19.816;2022-08-21T16:09:25;8.13;;;5.12;;
36243;SDS011;22284;49.956;19.816;2022-08-21T16:12:27;8.03;;;5.50;;
36243;SDS011;22284;49.956;19.816;2022-08-21T16:15:32;9.45;;;5.10;;
36243;SDS011;22284;49.956;19.816;2022-08-21T16:18:34;9.73;;;5.30;;
36243;SDS011;22284;49.956;19.816;2022-08-21T16:21:35;7.65;;;5.45;;
36243;SDS011;22284;49.956;19.816;2022-08-21T16:24:37;7.07;;;4.70;;
36243;SDS011;22284;49.956;19.816;2022-08-21T16:27:38;8.83;;;4.87;;
36243;SDS011;22284;49.956;19.816;2022-08-21T16:30:42;6.40;;;4.45;;
36243;SDS011;22284;49.956;19.816;2022-08-21T16:33:49;8.23;;;4.47;;
36243;SDS011;22284;49.956;19.816;2022-08-21T16:36:53;8.70;;;4.37;;
36243;SDS011;22284;49.956;19.816;2022-08-21T16:39:54;6.55;;;4.20;;
36243;SDS011;22284;49.956;19.816;2022-08-21T16:42:56;6.55;;;4.30;;
36243;SDS011;22284;49.956;19.816;2022-08-21T16:45:57;12.63;;;4.37;;
36243;SDS011;22284;49.956;19.816;2022-08-21T16:49:00;7.28;;;4.65;;
36243;SDS011;22284;49.956;19.816;2022-08-21T16:52:02;6.75;;;3.87;;
36243;SDS011;22284;49.956;19.816;2022-08-21T16:55:05;5.78;;;3.62;;
36243;SDS011;22284;49.956;19.816;2022-08-21T16:58:13;7.05;;;3.35;;
36243;SDS011;22284;49.956;19.816;2022-08-21T17:01:30;5.15;;;3.45;;
36243;SDS011;22284;49.956;19.816;2022-08-21T17:04:33;6.10;;;3.40;;
36243;SDS011;22284;49.956;19.816;2022-08-21T17:07:34;6.05;;;3.35;;
36243;SDS011;22284;49.956;19.816;2022-08-21T17:10:35;3.83;;;2.85;;
36243;SDS011;22284;49.956;19.816;2022-08-21T17:13:37;3.30;;;2.98;;
36243;SDS011;22284;49.956;19.816;2022-08-21T17:16:39;5.58;;;3.20;;
36243;SDS011;22284;49.956;19.816;2022-08-21T17:19:43;5.97;;;3.08;;
36243;SDS011;22284;49.956;19.816;2022-08-21T17:22:44;4.22;;;3.30;;
36243;SDS011;22284;49.956;19.816;2022-08-21T17:25:46;3.50;;;3.20;;
36243;SDS011;22284;49.956;19.816;2022-08-21T17:28:51;4.85;;;2.92;;
36243;SDS011;22284;49.956;19.816;2022-08-21T17:31:53;4.30;;;3.10;;
36243;SDS011;22284;49.956;19.816;2022-08-21T17:34:54;5.20;;;3.50;;
36243;SDS011;22284;49.956;19.816;2022-08-21T17:37:55;4.53;;;3.58;;
36243;SDS011;22284;49.956;19.816;2022-08-21T17:40:57;6.70;;;3.27;;
36243;SDS011;22284;49.956;19.816;2022-08-21T17:43:58;5.08;;;3.08;;
36243;SDS011;22284;49.956;19.816;2022-08-21T17:47:05;5.53;;;3.25;;
36243;SDS011;22284;49.956;19.816;2022-08-21T17:50:08;4.33;;;3.37;;
36243;SDS011;22284;49.956;19.816;2022-08-21T17:53:11;4.75;;;3.45;;
36243;SDS011;22284;49.956;19.816;2022-08-21T17:56:13;5.72;;;3.30;;
36243;SDS011;22284;49.956;19.816;2022-08-21T17:59:16;4.30;;;3.17;;
36243;SDS011;22284;49.956;19.816;2022-08-21T18:02:17;4.58;;;3.50;;
36243;SDS011;22284;49.956;19.816;2022-08-21T18:05:18;4.10;;;3.33;;
36243;SDS011;22284;49.956;19.816;2022-08-21T18:08:19;4.78;;;3.30;;
36243;SDS011;22284;49.956;19.816;2022-08-21T18:11:20;5.80;;;3.52;;
36243;SDS011;22284;49.956;19.816;2022-08-21T18:14:27;5.05;;;3.15;;
36243;SDS011;22284;49.956;19.816;2022-08-21T18:17:32;5.80;;;3.50;;
36243;SDS011;22284;49.956;19.816;2022-08-21T18:20:34;3.27;;;2.98;;
36243;SDS011;22284;49.956;19.816;2022-08-21T18:23:35;5.78;;;3.17;;
36243;SDS011;22284;49.956;19.816;2022-08-21T18:26:37;3.20;;;2.90;;
36243;SDS011;22284;49.956;19.816;2022-08-21T18:29:40;5.53;;;2.77;;
36243;SDS011;22284;49.956;19.816;2022-08-21T18:32:41;7.20;;;2.92;;
36243;SDS011;22284;49.956;19.816;2022-08-21T18:35:43;3.12;;;2.62;;
36243;SDS011;22284;49.956;19.816;2022-08-21T18:38:44;4.28;;;2.90;;
36243;SDS011;22284;49.956;19.816;2022-08-21T18:41:45;7.75;;;3.47;;
36243;SDS011;22284;49.956;19.816;2022-08-21T18:50:54;4.47;;;3.37;;
36243;SDS011;22284;49.956;19.816;2022-08-21T18:53:55;5.42;;;3.80;;
36243;SDS011;22284;49.956;19.816;2022-08-21T18:56:56;7.70;;;4.20;;
36243;SDS011;22284;49.956;19.816;2022-08-21T18:59:57;6.22;;;4.20;;
36243;SDS011;22284;49.956;19.816;2022-08-21T19:02:59;8.63;;;4.35;;
36243;SDS011;22284;49.956;19.816;2022-08-21T19:06:01;7.60;;;4.40;;
36243;SDS011;22284;49.956;19.816;2022-08-21T19:09:02;6.12;;;4.20;;
36243;SDS011;22284;49.956;19.816;2022-08-21T19:12:06;5.53;;;3.87;;
36243;SDS011;22284;49.956;19.816;2022-08-21T19:15:07;6.30;;;3.90;;
36243;SDS011;22284;49.956;19.816;2022-08-21T19:18:12;4.97;;;3.37;;
36243;SDS011;22284;49.956;19.816;2022-08-21T19:21:15;4.58;;;3.40;;
36243;SDS011;22284;49.956;19.816;2022-08-21T19:24:16;4.30;;;3.60;;
36243;SDS011;22284;49.956;19.816;2022-08-21T19:27:17;5.50;;;3.70;;